Time;durP1;ratioP1;P1;durP2;ratioP2;P2;SDS_P1;SDS_P2;PMS_P1;PMS_P2;Temp;Humidity;BMP_temperature;BMP_pressure;BME280_temperature;BME280_humidity;BME280_pressure;Samples;Min_cycle;Max_cycle;Signal;HPM_P1;HPM_P2
2022/10/02 00:02:30;;;;;;;4.65;1.30;;;;;;;11.22;100.00;99930.44;4993953;28;20046;-85
2022/10/02 00:05:06;;;;;;;2.85;1.15;;;;;;;11.55;100.00;99974.13;4990801;28;20050;-85
2022/10/02 00:07:45;;;;;;;6.28;1.40;;;;;;;11.36;100.00;99977.72;4998345;28;20049;-84
2022/10/02 00:10:20;;;;;;;6.25;1.20;;;;;;;11.35;100.00;99967.31;4981354;28;20054;-85
2022/10/02 00:12:50;;;;;;;4.63;1.17;;;;;;;11.36;100.00;99966.38;4993771;28;20045;-85
2022/10/02 00:15:26;;;;;;;5.65;1.30;;;;;;;11.44;100.00;99977.31;4994176;28;20045;-85
2022/10/02 00:17:58;;;;;;;4.90;1.20;;;;;;;11.20;100.00;99951.47;4993090;28;20390;-84
2022/10/02 00:20:54;;;;;;;4.47;1.17;;;;;;;11.50;100.00;99994.50;4997625;28;20045;-83
2022/10/02 00:23:37;;;;;;;5.30;1.30;;;;;;;11.36;100.00;99987.34;4979130;28;20061;-85
2022/10/02 00:26:17;;;;;;;6.87;1.47;;;;;;;11.29;100.00;99991.22;4997290;28;20415;-83
2022/10/02 00:29:02;;;;;;;6.85;1.42;;;;;;;11.26;100.00;99999.25;5013476;28;20054;-83
2022/10/02 00:31:51;;;;;;;12.25;1.70;;;;;;;11.29;100.00;99993.84;5014770;28;20057;-85
2022/10/02 00:34:29;;;;;;;3.60;1.10;;;;;;;11.33;100.00;99987.50;4994310;28;20105;-83
2022/10/02 00:37:31;;;;;;;7.10;1.60;;;;;;;11.44;100.00;100019.25;5010479;28;20107;-83
2022/10/02 00:40:10;;;;;;;6.18;1.17;;;;;;;11.38;100.00;100022.19;5007528;28;20058;-83
2022/10/02 00:43:14;;;;;;;9.40;1.40;;;;;;;11.36;100.00;100024.88;4995297;28;20740;-84
2022/10/02 00:46:19;;;;;;;3.70;1.10;;;;;;;11.48;100.00;100031.28;4997222;28;20045;-84
2022/10/02 00:48:56;;;;;;;6.40;1.40;;;;;;;11.22;100.00;100014.28;5012392;28;20057;-84
2022/10/02 00:51:29;;;;;;;4.32;1.27;;;;;;;11.22;100.00;100009.03;5014195;28;20735;-84
2022/10/02 00:54:24;;;;;;;10.88;2.15;;;;;;;11.12;100.00;100020.91;5013670;28;20377;-84
2022/10/02 00:56:57;;;;;;;7.43;1.27;;;;;;;11.28;100.00;100049.78;5002627;28;20833;-84
2022/10/02 00:59:57;;;;;;;6.82;1.42;;;;;;;11.24;100.00;100048.28;4993351;28;20096;-84
2022/10/02 01:02:29;;;;;;;6.90;1.65;;;;;;;11.24;100.00;100053.50;5004480;28;20053;-84
2022/10/02 01:05:02;;;;;;;10.55;1.70;;;;;;;11.14;100.00;100066.25;4993546;28;20141;-84
2022/10/02 01:07:29;;;;;;;5.28;1.40;;;;;;;11.15;100.00;100050.41;5008447;28;20102;-84
2022/10/02 01:09:56;;;;;;;10.20;1.55;;;;;;;11.11;100.00;100022.69;4996546;28;20057;-84
2022/10/02 01:12:23;;;;;;;6.75;1.35;;;;;;;11.08;100.00;100040.34;4996828;28;20476;-84
2022/10/02 01:14:50;;;;;;;7.30;1.50;;;;;;;11.37;100.00;100068.53;4991192;28;20050;-84
2022/10/02 01:17:22;;;;;;;7.13;1.60;;;;;;;11.28;100.00;100065.50;4997005;28;20054;-84
2022/10/02 01:19:50;;;;;;;5.57;1.67;;;;;;;11.13;100.00;100043.56;4996635;28;20053;-85
2022/10/02 01:22:28;;;;;;;7.45;1.70;;;;;;;11.41;100.00;100071.84;4985607;28;20050;-85
2022/10/02 01:24:57;;;;;;;9.35;2.55;;;;;;;11.34;100.00;100070.47;4996366;28;20111;-84
2022/10/02 01:27:25;;;;;;;8.00;1.70;;;;;;;11.23;100.00;100068.41;4995137;28;20144;-85
2022/10/02 01:30:01;;;;;;;7.60;1.50;;;;;;;11.31;100.00;100063.59;5013044;28;20096;-85
2022/10/02 01:32:28;;;;;;;7.03;1.35;;;;;;;11.17;100.00;100048.59;4995885;28;20049;-85
2022/10/02 01:34:56;;;;;;;4.82;1.15;;;;;;;11.14;100.00;100019.09;4996832;28;20089;-84
2022/10/02 01:37:35;;;;;;;6.95;1.50;;;;;;;11.09;100.00;100023.72;4996374;28;20057;-84
2022/10/02 01:40:07;;;;;;;12.25;1.50;;;;;;;11.43;100.00;100067.34;4996369;28;20057;-84
2022/10/02 01:42:37;;;;;;;5.40;1.77;;;;;;;11.36;100.00;100071.22;4996280;28;20046;-84
2022/10/02 01:45:06;;;;;;;7.20;1.70;;;;;;;11.51;100.00;100085.31;5013061;28;20506;-85
2022/10/02 01:48:03;;;;;;;4.38;1.13;;;;;;;11.45;100.00;100080.38;5013204;28;20050;-84
2022/10/02 01:50:59;;;;;;;6.25;1.20;;;;;;;11.49;100.00;100090.66;4983090;28;20049;-85
2022/10/02 01:53:35;;;;;;;5.45;1.30;;;;;;;11.39;100.00;100105.16;5008276;28;20093;-84
2022/10/02 01:56:29;;;;;;;5.13;1.67;;;;;;;11.33;100.00;100077.47;4995771;28;20050;-84
2022/10/02 01:59:05;;;;;;;5.78;1.38;;;;;;;11.49;100.00;100108.13;4991390;28;20132;-84
2022/10/02 02:01:34;;;;;;;6.60;1.55;;;;;;;11.49;100.00;100113.38;4995983;28;20100;-82
2022/10/02 02:04:20;;;;;;;11.73;1.65;;;;;;;11.32;100.00;100116.88;4986585;28;20569;-84
2022/10/02 02:07:16;;;;;;;11.45;1.80;;;;;;;11.43;100.00;100124.19;5011946;28;20054;-83
2022/10/02 02:10:08;;;;;;;5.55;1.42;;;;;;;11.71;100.00;100137.56;4991365;28;20049;-85
2022/10/02 02:12:44;;;;;;;5.88;1.35;;;;;;;11.66;100.00;100131.72;4982423;28;20480;-84
2022/10/02 02:15:17;;;;;;;6.03;1.48;;;;;;;11.72;100.00;100141.03;4995645;28;20112;-84
2022/10/02 02:17:52;;;;;;;5.60;1.35;;;;;;;11.64;100.00;100114.38;5011650;28;20042;-84
2022/10/02 02:20:31;;;;;;;4.20;1.33;;;;;;;11.62;100.00;100111.84;4994732;28;20049;-84
2022/10/02 02:23:05;;;;;;;6.18;1.20;;;;;;;11.82;100.00;100142.25;4999515;28;20049;-84
2022/10/02 02:25:39;;;;;;;5.88;1.17;;;;;;;12.10;100.00;100161.84;5012243;28;20104;-84
2022/10/02 02:28:11;;;;;;;5.80;1.63;;;;;;;12.07;100.00;100141.00;5005245;28;20485;-84
2022/10/02 02:30:41;;;;;;;8.43;1.58;;;;;;;12.25;100.00;100178.53;4989560;28;20064;-84
2022/10/02 02:33:16;;;;;;;10.32;1.30;;;;;;;12.07;100.00;100146.25;4994951;28;20053;-85
2022/10/02 02:35:48;;;;;;;4.47;1.27;;;;;;;11.98;100.00;100137.09;5011009;28;20176;-84
2022/10/02 02:38:23;;;;;;;6.00;1.90;;;;;;;11.95;100.00;100156.47;4994579;28;20385;-84
2022/10/02 02:40:51;;;;;;;11.52;1.50;;;;;;;12.02;100.00;100172.72;5011364;28;20053;-84
2022/10/02 02:43:25;;;;;;;4.05;1.20;;;;;;;12.17;100.00;100185.97;4994621;28;20049;-84
2022/10/02 02:45:59;;;;;;;7.03;1.52;;;;;;;11.79;100.00;100147.66;4995285;28;20761;-84
2022/10/02 02:48:35;;;;;;;6.22;1.30;;;;;;;12.31;100.00;100188.72;4995174;28;20464;-85
2022/10/02 02:51:14;;;;;;;4.28;1.15;;;;;;;12.18;100.00;100185.03;5012024;28;20046;-84
2022/10/02 02:53:52;;;;;;;8.68;1.40;;;;;;;12.18;100.00;100170.13;4997045;28;20045;-84
2022/10/02 02:56:20;;;;;;;8.57;1.48;;;;;;;12.33;100.00;100203.44;4995196;28;20054;-84
2022/10/02 02:59:07;;;;;;;4.95;1.10;;;;;;;12.44;100.00;100196.78;4994763;28;20526;-85
2022/10/02 03:01:34;;;;;;;3.65;1.20;;;;;;;12.43;100.00;100206.44;5011600;28;20173;-85
2022/10/02 03:04:00;;;;;;;10.85;1.52;;;;;;;12.33;100.00;100205.22;5012655;28;20064;-84
2022/10/02 03:06:38;;;;;;;4.45;1.40;;;;;;;12.32;100.00;100200.88;4995537;28;20140;-85
2022/10/02 03:09:11;;;;;;;5.47;1.15;;;;;;;12.42;100.00;100211.75;4990907;28;20045;-84
2022/10/02 03:12:01;;;;;;;4.25;1.13;;;;;;;12.46;100.00;100224.63;5009272;28;20176;-84
2022/10/02 03:14:41;;;;;;;3.72;1.02;;;;;;;12.14;100.00;100179.94;4994989;28;20100;-85
2022/10/02 03:17:33;;;;;;;4.80;1.17;;;;;;;12.54;100.00;100232.13;5009601;28;20056;-85
2022/10/02 03:20:11;;;;;;;7.28;1.20;;;;;;;12.21;100.00;100183.09;4994782;28;20548;-84
2022/10/02 03:22:58;;;;;;;9.05;1.75;;;;;;;12.55;100.00;100239.03;5009174;28;20404;-84
2022/10/02 03:25:37;;;;;;;5.97;1.35;;;;;;;12.50;100.00;100241.94;4994886;28;20061;-85
2022/10/02 03:28:21;;;;;;;6.22;1.20;;;;;;;12.59;100.00;100251.09;5010551;28;20081;-85
2022/10/02 03:31:11;;;;;;;4.15;1.20;;;;;;;12.59;100.00;100252.84;5009811;28;20569;-85
2022/10/02 03:33:39;;;;;;;7.57;1.63;;;;;;;12.45;100.00;100230.81;4994663;28;20056;-84
2022/10/02 03:36:05;;;;;;;12.00;1.30;;;;;;;12.50;100.00;100262.94;4993920;28;20077;-84
2022/10/02 03:38:32;;;;;;;7.55;1.45;;;;;;;12.50;100.00;100262.94;5009958;28;20108;-84
2022/10/02 03:40:59;;;;;;;6.90;1.77;;;;;;;12.24;100.00;100255.59;4992144;28;20097;-84
2022/10/02 03:43:28;;;;;;;4.65;1.15;;;;;;;12.07;100.00;100243.34;5011402;28;20046;-84
2022/10/02 03:45:55;;;;;;;8.15;1.52;;;;;;;12.07;100.00;100267.78;4994600;28;20108;-85
2022/10/02 03:48:22;;;;;;;3.15;1.05;;;;;;;11.94;100.00;100243.13;4994594;28;20042;-84
2022/10/02 03:50:49;;;;;;;5.30;1.27;;;;;;;12.25;100.00;100273.88;5011912;28;20057;-84
2022/10/02 03:53:19;;;;;;;4.32;1.20;;;;;;;11.86;100.00;100238.22;4993282;28;20046;-84
2022/10/02 03:56:28;;;;;;;4.07;1.20;;;;;;;12.19;100.00;100289.94;4989397;28;20050;-84
2022/10/02 03:59:00;;;;;;;6.55;1.48;;;;;;;12.17;100.00;100276.06;4980905;28;20511;-85
2022/10/02 04:01:41;;;;;;;6.75;1.20;;;;;;;12.33;100.00;100297.94;4997720;28;20042;-84
2022/10/02 04:04:21;;;;;;;6.68;1.48;;;;;;;12.07;100.00;100274.81;5002384;28;20046;-84
2022/10/02 04:07:03;;;;;;;4.20;1.10;;;;;;;11.80;100.00;100229.81;4997020;28;20042;-84
2022/10/02 04:09:58;;;;;;;8.07;1.10;;;;;;;11.98;100.00;100305.00;4997763;28;20049;-84
2022/10/02 04:12:37;;;;;;;5.32;1.33;;;;;;;12.01;100.00;100296.97;4985955;28;20471;-84
2022/10/02 04:16:03;;;;;;;7.75;1.35;;;;;;;11.94;100.00;100316.56;5011029;28;20050;-84
2022/10/02 04:19:05;;;;;;;6.03;1.45;;;;;;;12.12;100.00;100323.50;4973723;28;20050;-83
2022/10/02 04:21:37;;;;;;;8.48;1.38;;;;;;;11.84;100.00;100295.16;4907134;29;20054;-84
2022/10/02 04:24:14;;;;;;;4.87;1.20;;;;;;;11.71;100.00;100279.19;5006618;28;20100;-84
2022/10/02 04:26:56;;;;;;;5.47;1.40;;;;;;;11.87;100.00;100309.91;5014655;28;20057;-84
2022/10/02 04:29:31;;;;;;;7.03;1.17;;;;;;;12.08;100.00;100331.63;4996814;28;20062;-84
2022/10/02 04:32:11;;;;;;;5.43;1.67;;;;;;;12.09;100.00;100335.94;4997722;28;20042;-84
2022/10/02 04:34:38;;;;;;;6.93;1.63;;;;;;;11.78;100.00;100312.06;4997050;28;20046;-84
2022/10/02 04:37:07;;;;;;;6.75;1.00;;;;;;;12.04;100.00;100343.19;4997457;28;20050;-84
2022/10/02 04:39:39;;;;;;;4.28;1.15;;;;;;;11.96;100.00;100344.41;4997578;28;21038;-84
2022/10/02 04:42:29;;;;;;;6.82;1.48;;;;;;;11.97;100.00;100347.91;4997819;28;20093;-84
2022/10/02 04:45:22;;;;;;;6.32;1.20;;;;;;;12.01;100.00;100364.34;4996890;28;20057;-84
2022/10/02 04:48:40;;;;;;;6.50;1.35;;;;;;;11.88;100.00;100362.31;4996683;28;20504;-84
2022/10/02 04:51:27;;;;;;;3.65;1.10;;;;;;;11.88;100.00;100374.53;4984481;28;20443;-84
2022/10/02 04:54:11;;;;;;;7.53;1.20;;;;;;;11.90;100.00;100380.59;5004611;28;20851;-84
2022/10/02 04:56:51;;;;;;;6.00;1.38;;;;;;;11.77;100.00;100382.94;4996476;28;20096;-84
2022/10/02 04:59:40;;;;;;;8.40;1.60;;;;;;;11.69;100.00;100351.00;4997142;28;20104;-84
2022/10/02 05:02:26;;;;;;;4.30;1.20;;;;;;;11.85;100.00;100400.94;4997153;28;20052;-83
2022/10/02 05:04:52;;;;;;;5.03;1.20;;;;;;;11.83;100.00;100402.78;4996192;28;20076;-84
2022/10/02 05:07:22;;;;;;;4.57;1.52;;;;;;;11.83;100.00;100406.28;5013933;28;20100;-83
2022/10/02 05:10:25;;;;;;;5.35;1.38;;;;;;;11.78;100.00;100398.59;5014660;28;20049;-83
2022/10/02 05:12:58;;;;;;;4.65;1.10;;;;;;;11.90;100.00;100418.19;4989059;28;20049;-83
2022/10/02 05:15:43;;;;;;;6.95;1.25;;;;;;;11.80;100.00;100424.78;4996595;28;20112;-83
2022/10/02 05:18:27;;;;;;;3.17;1.00;;;;;;;11.76;100.00;100429.31;4996562;28;20065;-83
2022/10/02 05:20:54;;;;;;;5.15;1.52;;;;;;;11.70;100.00;100431.38;5014002;28;20046;-83
2022/10/02 05:24:05;;;;;;;6.07;1.20;;;;;;;11.93;100.00;100439.03;4996638;28;20058;-83
2022/10/02 05:26:47;;;;;;;3.55;1.00;;;;;;;11.90;100.00;100446.19;4975086;28;20054;-85
2022/10/02 05:29:27;;;;;;;4.97;1.10;;;;;;;11.76;100.00;100445.06;5011625;28;20104;-84
2022/10/02 05:32:06;;;;;;;3.95;1.10;;;;;;;11.80;100.00;100468.53;4996749;28;20468;-84
2022/10/02 05:34:42;;;;;;;3.83;0.95;;;;;;;11.55;100.00;100435.56;4994186;28;20045;-83
2022/10/02 05:37:24;;;;;;;3.13;1.20;;;;;;;11.72;100.00;100472.34;4995853;28;20049;-84
2022/10/02 05:40:09;;;;;;;1.42;0.90;;;;;;;11.56;100.00;100479.19;5004441;28;20049;-84
2022/10/02 05:43:09;;;;;;;3.40;0.90;;;;;;;11.58;100.00;100485.25;5006743;28;20045;-84
2022/10/02 05:45:37;;;;;;;4.35;1.00;;;;;;;10.99;100.00;100426.72;4996633;28;20699;-83
2022/10/02 05:48:22;;;;;;;3.30;1.05;;;;;;;11.05;100.00;100451.78;5013461;28;20050;-84
2022/10/02 05:50:54;;;;;;;3.20;0.98;;;;;;;11.22;100.00;100499.06;5011137;28;20045;-84
2022/10/02 05:53:32;;;;;;;2.55;0.90;;;;;;;11.25;100.00;100511.22;4994991;28;20088;-85
2022/10/02 05:56:14;;;;;;;2.63;0.90;;;;;;;11.14;100.00;100522.16;5012162;28;20049;-84
2022/10/02 05:58:50;;;;;;;4.28;1.17;;;;;;;10.98;100.00;100503.63;5000291;28;20116;-84
2022/10/02 06:01:28;;;;;;;4.90;1.20;;;;;;;11.17;100.00;100535.09;4996003;28;20456;-84
2022/10/02 06:04:01;;;;;;;3.92;1.30;;;;;;;11.04;100.00;100534.78;5001795;28;20054;-84
2022/10/02 06:06:38;;;;;;;5.03;1.45;;;;;;;11.06;100.00;100519.00;4995514;28;20173;-84
2022/10/02 06:09:18;;;;;;;2.85;1.15;;;;;;;10.94;100.00;100518.63;4996270;28;20108;-84
2022/10/02 06:11:57;;;;;;;5.93;1.58;;;;;;;11.08;100.00;100535.50;5010409;28;20046;-84
2022/10/02 06:14:46;;;;;;;3.72;1.10;;;;;;;11.19;100.00;100551.59;4994690;28;20050;-84
2022/10/02 06:17:34;;;;;;;4.13;1.33;;;;;;;11.20;100.00;100548.09;5008106;28;20484;-84
2022/10/02 06:20:15;;;;;;;3.65;0.90;;;;;;;10.76;100.00;100486.19;5003758;28;20503;-84
2022/10/02 06:23:20;;;;;;;5.10;1.15;;;;;;;11.21;100.00;100561.13;4994851;28;20042;-84
2022/10/02 06:26:14;;;;;;;6.50;1.45;;;;;;;11.20;100.00;100558.56;4963868;28;20776;-84
2022/10/02 06:29:01;;;;;;;;;;;;;;;11.29;100.00;100573.88;4987092;28;20054;-84
2022/10/02 06:31:45;;;;;;;2.80;1.10;;;;;;;11.24;100.00;100570.63;4982553;28;19947;-85
2022/10/02 06:34:13;;;;;;;3.72;1.10;;;;;;;11.05;100.00;100573.19;5012265;28;20065;-85
2022/10/02 06:37:22;;;;;;;2.28;1.00;;;;;;;11.11;100.00;100574.69;4992978;28;20050;-84
2022/10/02 06:40:16;;;;;;;9.48;1.35;;;;;;;11.23;100.00;100599.53;4986208;28;20112;-84
2022/10/02 06:42:52;;;;;;;3.88;1.13;;;;;;;11.17;100.00;100598.88;4993004;28;20065;-84
2022/10/02 06:45:37;;;;;;;5.60;1.30;;;;;;;10.83;100.00;100565.34;4994849;28;20057;-85
2022/10/02 06:48:23;;;;;;;9.10;1.20;;;;;;;11.11;100.00;100614.84;5003930;28;20057;-83
2022/10/02 06:50:53;;;;;;;2.75;1.23;;;;;;;10.83;100.00;100576.69;5002926;28;20054;-83
2022/10/02 06:53:32;;;;;;;2.15;0.90;;;;;;;11.07;100.00;100617.66;5003738;28;20392;-84
2022/10/02 06:56:37;;;;;;;5.95;1.10;;;;;;;11.23;100.00;100620.50;5003681;28;20507;-84
2022/10/02 06:59:45;;;;;;;3.30;1.02;;;;;;;11.20;100.00;100622.31;5000416;28;20054;-83
2022/10/02 07:02:27;;;;;;;3.42;1.10;;;;;;;11.35;100.00;100633.94;4978964;28;20050;-84
2022/10/02 07:05:45;;;;;;;4.38;0.95;;;;;;;11.35;100.00;100635.69;4991788;28;20393;-84
2022/10/02 07:08:36;;;;;;;5.32;1.00;;;;;;;11.23;100.00;100615.25;4971289;28;20058;-83
2022/10/02 07:11:14;;;;;;;9.02;2.60;;;;;;;11.31;100.00;100648.06;5013788;28;20404;-84
2022/10/02 07:13:57;;;;;;;2.75;1.02;;;;;;;11.46;100.00;100650.97;5008270;28;20060;-84
2022/10/02 07:16:52;;;;;;;4.65;1.08;;;;;;;12.45;100.00;100653.56;4989465;28;20067;-84
2022/10/02 07:19:27;;;;;;;5.18;1.30;;;;;;;12.96;100.00;100610.88;5007706;28;20052;-83
2022/10/02 07:21:56;;;;;;;3.10;1.08;;;;;;;13.84;100.00;100655.47;4985714;28;20043;-84
2022/10/02 07:24:35;;;;;;;5.57;1.10;;;;;;;14.68;100.00;100664.19;5010705;28;20049;-84
2022/10/02 07:27:14;;;;;;;2.95;0.90;;;;;;;14.73;100.00;100676.19;4998457;28;20100;-84
2022/10/02 07:30:05;;;;;;;7.20;1.15;;;;;;;14.62;100.00;100602.16;4993396;28;20054;-84
2022/10/02 07:32:41;;;;;;;5.88;0.98;;;;;;;15.46;100.00;100679.97;4994817;28;20108;-84
2022/10/02 07:35:18;;;;;;;3.80;1.02;;;;;;;15.82;100.00;100692.78;5016752;28;20719;-84
2022/10/02 07:38:03;;;;;;;3.80;1.10;;;;;;;16.19;100.00;100700.28;4996187;28;20758;-84
2022/10/02 07:40:46;;;;;;;4.88;0.90;;;;;;;16.21;100.00;100686.00;5018353;28;20046;-84
2022/10/02 07:43:21;;;;;;;5.07;1.17;;;;;;;16.53;100.00;100712.22;4999352;28;20052;-85
2022/10/02 07:46:37;;;;;;;3.08;1.00;;;;;;;16.69;100.00;100702.34;5004825;28;20108;-84
2022/10/02 07:49:24;;;;;;;2.80;0.80;;;;;;;16.84;100.00;100686.50;5002476;28;20050;-84
2022/10/02 07:51:59;;;;;;;2.40;0.70;;;;;;;17.03;100.00;100710.81;5007990;28;20116;-84
2022/10/02 07:54:53;;;;;;;6.03;1.02;;;;;;;17.05;100.00;100705.41;5002655;28;20144;-84
2022/10/02 07:57:42;;;;;;;2.58;0.85;;;;;;;16.99;100.00;100711.09;5014989;28;20046;-85
2022/10/02 08:00:13;;;;;;;4.65;1.13;;;;;;;17.02;100.00;100718.84;5019095;28;20054;-85
2022/10/02 08:03:04;;;;;;;5.47;1.20;;;;;;;17.19;100.00;100715.97;5017504;28;20045;-84
2022/10/02 08:05:40;;;;;;;4.40;1.10;;;;;;;16.89;99.81;100717.00;4998236;28;20042;-85
2022/10/02 08:08:28;;;;;;;5.75;1.20;;;;;;;16.99;100.00;100689.94;4994499;28;20061;-87
2022/10/02 08:11:18;;;;;;;4.78;0.90;;;;;;;17.47;100.00;100692.94;5012751;28;20067;-85
2022/10/02 08:13:48;;;;;;;4.03;0.90;;;;;;;17.88;96.82;100738.78;5001087;28;20042;-84
2022/10/02 08:16:18;;;;;;;5.20;0.90;;;;;;;17.99;97.18;100710.59;4997222;28;20050;-85
2022/10/02 08:18:53;;;;;;;2.92;0.80;;;;;;;17.80;88.25;100721.56;5012613;28;20080;-85
2022/10/02 08:21:23;;;;;;;1.98;0.68;;;;;;;18.22;85.56;100750.56;5000847;28;20104;-86
2022/10/02 08:23:58;;;;;;;5.28;1.02;;;;;;;17.62;82.41;100713.09;5000943;28;20508;-85
2022/10/02 08:26:47;;;;;;;4.95;1.00;;;;;;;17.90;84.26;100758.91;5000473;28;20096;-85
2022/10/02 08:29:23;;;;;;;2.72;0.80;;;;;;;17.97;90.07;100744.31;4998986;28;20166;-84
2022/10/02 08:32:10;;;;;;;7.07;1.35;;;;;;;18.01;82.04;100777.56;5001407;28;20042;-87
2022/10/02 08:34:40;;;;;;;5.18;1.30;;;;;;;16.97;80.14;100713.00;5001869;28;20408;-87
2022/10/02 08:37:28;;;;;;;5.20;1.20;;;;;;;16.84;86.02;100720.88;4998372;28;20050;-87
2022/10/02 08:40:27;;;;;;;6.32;1.30;;;;;;;17.43;83.74;100784.09;5007566;28;20089;-87
2022/10/02 08:43:16;;;;;;;4.15;1.10;;;;;;;17.52;79.23;100795.88;4987429;28;20374;-86
2022/10/02 08:46:20;;;;;;;7.10;1.50;;;;;;;16.70;83.49;100758.75;4998009;28;20170;-86
2022/10/02 08:49:03;;;;;;;4.72;1.38;;;;;;;17.51;78.27;100796.81;4998261;28;20064;-87
2022/10/02 08:51:54;;;;;;;12.13;1.50;;;;;;;17.12;82.24;100803.72;4999024;28;20451;-87
2022/10/02 08:54:55;;;;;;;7.70;1.15;;;;;;;16.90;80.12;100813.03;4995017;28;20058;-86
2022/10/02 08:57:47;;;;;;;5.65;1.50;;;;;;;16.85;81.52;100749.00;4991332;28;20077;-86
2022/10/02 09:00:35;;;;;;;11.57;1.90;;;;;;;16.12;82.60;100781.66;4989164;28;20062;-87
2022/10/02 09:03:44;;;;;;;8.48;1.60;;;;;;;16.32;89.61;100822.72;5015359;28;20132;-86
2022/10/02 09:06:30;;;;;;;6.50;1.42;;;;;;;16.10;90.75;100810.81;5013125;28;20404;-86
2022/10/02 09:09:15;;;;;;;11.93;1.67;;;;;;;16.06;89.57;100816.34;5008318;28;20464;-88
2022/10/02 09:12:07;;;;;;;6.75;1.65;;;;;;;16.62;91.62;100798.00;5013489;28;20093;-87
2022/10/02 09:15:12;;;;;;;7.57;1.40;;;;;;;17.01;86.72;100828.22;4993611;28;20056;-87
2022/10/02 09:17:48;;;;;;;5.07;1.27;;;;;;;16.72;84.64;100824.75;4995054;28;20050;-86
2022/10/02 09:20:57;;;;;;;7.65;1.42;;;;;;;17.23;85.38;100836.50;4999031;28;20059;-85
2022/10/02 09:23:46;;;;;;;6.03;1.30;;;;;;;16.97;80.80;100835.50;4984510;28;20061;-88
2022/10/02 09:26:30;;;;;;;7.85;1.52;;;;;;;16.43;88.33;100827.34;5014395;28;20058;-86
2022/10/02 09:29:19;;;;;;;6.30;1.30;;;;;;;16.49;88.39;100800.56;4997664;28;20057;-86
2022/10/02 09:31:58;;;;;;;4.90;1.20;;;;;;;16.95;86.86;100863.00;4996208;28;20061;-85
2022/10/02 09:34:39;;;;;;;5.22;1.02;;;;;;;16.99;85.74;100861.88;4993998;28;20044;-86
2022/10/02 09:37:28;;;;;;;4.40;1.02;;;;;;;16.46;88.80;100859.72;4997231;28;20451;-85
2022/10/02 09:40:55;;;;;;;6.47;1.50;;;;;;;16.54;89.72;100846.06;4999614;28;20050;-87
2022/10/02 09:44:02;;;;;;;9.95;1.80;;;;;;;16.44;90.17;100861.63;4971837;28;20058;-86
2022/10/02 09:46:58;;;;;;;4.57;1.10;;;;;;;16.32;89.55;100812.16;4964523;28;20050;-87
2022/10/02 09:49:46;;;;;;;3.30;0.98;;;;;;;16.93;86.66;100868.41;4959663;28;20050;-87
2022/10/02 09:52:50;;;;;;;6.07;1.30;;;;;;;16.60;90.79;100861.53;5008889;28;20049;-88
2022/10/02 09:55:35;;;;;;;10.63;1.40;;;;;;;16.54;94.79;100876.91;5013003;28;20554;-88
2022/10/02 09:58:44;;;;;;;7.93;1.23;;;;;;;17.16;91.10;100880.19;5012706;28;20104;-87
2022/10/02 10:01:26;;;;;;;5.18;1.10;;;;;;;16.75;94.54;100886.22;5001016;28;20049;-86
2022/10/02 10:04:08;;;;;;;5.57;1.30;;;;;;;16.54;92.31;100883.06;5012415;28;20404;-86
2022/10/02 10:06:50;;;;;;;6.07;1.30;;;;;;;16.24;89.77;100865.47;4995715;28;20049;-86
2022/10/02 10:09:33;;;;;;;4.55;1.10;;;;;;;16.67;90.60;100872.59;4993915;28;20560;-87
2022/10/02 10:12:58;;;;;;;4.55;1.00;;;;;;;17.13;89.85;100890.94;4995577;28;20508;-88
2022/10/02 10:15:39;;;;;;;6.45;1.40;;;;;;;16.96;90.35;100894.63;4981584;28;20085;-88
2022/10/02 10:18:09;;;;;;;6.90;1.58;;;;;;;16.46;87.36;100858.91;4998859;28;20049;-89
2022/10/02 10:21:00;;;;;;;4.57;1.35;;;;;;;16.51;89.51;100899.13;5008094;28;20057;-88
2022/10/02 10:24:01;;;;;;;6.82;1.42;;;;;;;16.58;88.27;100897.81;4995318;28;20049;-86
2022/10/02 10:26:39;;;;;;;8.40;1.30;;;;;;;16.78;86.36;100899.22;4987721;28;20054;-87
2022/10/02 10:29:44;;;;;;;10.35;2.47;;;;;;;17.02;86.16;100906.66;4991741;28;20068;-87
2022/10/02 10:32:46;;;;;;;6.95;1.35;;;;;;;17.59;86.54;100901.25;4995420;28;20412;-86
2022/10/02 10:35:27;;;;;;;6.78;1.75;;;;;;;16.91;84.45;100880.00;4994373;28;20060;-87
2022/10/02 10:41:23;;;;;;;11.38;1.45;;;;;;;17.52;82.46;100918.47;5011708;28;20052;-87
2022/10/02 10:44:30;;;;;;;5.53;1.48;;;;;;;17.48;79.56;100894.97;4996239;28;20049;-88
2022/10/02 10:47:03;;;;;;;6.18;1.50;;;;;;;16.88;80.74;100924.19;4993351;28;20495;-87
2022/10/02 10:50:02;;;;;;;8.52;1.60;;;;;;;17.10;82.47;100900.88;5011851;28;20507;-87
2022/10/02 10:53:06;;;;;;;7.93;1.50;;;;;;;16.78;84.18;100895.75;4993552;28;20144;-89
2022/10/02 10:56:06;;;;;;;4.80;1.40;;;;;;;17.16;83.55;100904.00;4993331;28;20072;-87
2022/10/02 10:58:35;;;;;;;6.18;1.20;;;;;;;16.90;81.01;100881.78;4994180;28;20073;-87
2022/10/02 11:01:27;;;;;;;6.43;1.50;;;;;;;17.25;80.15;100940.44;4991270;28;20404;-87
2022/10/02 11:04:05;;;;;;;7.63;1.42;;;;;;;17.07;81.02;100920.44;4990375;28;20045;-88
2022/10/02 11:07:08;;;;;;;8.38;1.30;;;;;;;16.94;77.96;100880.66;4996748;28;20065;-86
2022/10/02 11:10:06;;;;;;;8.30;1.80;;;;;;;17.31;81.45;100919.84;4950804;28;20535;-89
2022/10/02 11:12:51;;;;;;;7.45;1.60;;;;;;;17.60;78.94;100969.16;5016390;28;20538;-87
2022/10/02 11:15:39;;;;;;;6.53;1.20;;;;;;;17.64;75.36;100938.88;4986082;28;20784;-85
2022/10/02 11:18:29;;;;;;;6.95;1.30;;;;;;;17.39;76.31;100952.81;5006071;28;20045;-89
2022/10/02 11:21:10;;;;;;;10.07;2.20;;;;;;;17.92;74.19;100982.16;5004706;28;20054;-87
2022/10/02 11:24:01;;;;;;;7.03;1.40;;;;;;;17.99;73.62;100934.94;4994770;28;20050;-88
2022/10/02 11:26:49;;;;;;;6.90;1.40;;;;;;;18.02;70.50;100971.81;4990284;28;20115;-86
2022/10/02 11:29:32;;;;;;;7.68;1.40;;;;;;;17.78;71.73;100939.81;4993938;28;20079;-88
2022/10/02 11:32:13;;;;;;;4.13;0.93;;;;;;;17.72;71.21;100995.78;5011515;28;20053;-87
2022/10/02 11:34:51;;;;;;;3.70;1.25;;;;;;;18.31;70.91;100983.16;4993910;28;20077;-87
2022/10/02 11:37:43;;;;;;;5.05;0.98;;;;;;;18.44;69.77;100985.00;5007733;28;20062;-87
2022/10/02 11:40:59;;;;;;;7.13;1.15;;;;;;;18.51;68.25;101005.69;4992458;28;20491;-88
2022/10/02 11:43:38;;;;;;;8.80;1.42;;;;;;;18.38;67.30;100988.91;4986675;28;20054;-87
2022/10/02 11:46:27;;;;;;;5.57;1.10;;;;;;;18.45;68.03;101014.06;4992332;28;20133;-88
2022/10/02 11:49:31;;;;;;;6.75;1.42;;;;;;;18.27;68.12;101013.44;5004400;28;20049;-87
2022/10/02 11:51:57;;;;;;;9.70;1.65;;;;;;;17.96;70.08;101019.91;4991633;28;20447;-88
2022/10/02 11:54:32;;;;;;;8.10;1.35;;;;;;;17.73;70.30;100965.72;5008751;28;20053;-88
2022/10/02 11:57:20;;;;;;;5.90;1.48;;;;;;;17.84;72.27;101016.19;5007524;28;20054;-90
2022/10/02 12:00:13;;;;;;;7.93;1.50;;;;;;;17.42;73.13;100991.47;5004849;28;20049;-88
2022/10/02 12:02:55;;;;;;;6.90;1.48;;;;;;;17.76;73.18;101023.75;4992721;28;20053;-88
2022/10/02 12:05:54;;;;;;;7.50;1.60;;;;;;;17.73;72.94;101037.22;5007820;28;20061;-86
2022/10/02 12:08:49;;;;;;;9.98;1.63;;;;;;;17.02;73.57;100959.56;5009987;28;20080;-87
2022/10/02 12:11:42;;;;;;;7.33;1.77;;;;;;;17.14;73.45;100990.53;4992357;28;20058;-88
2022/10/02 12:14:36;;;;;;;8.57;1.80;;;;;;;17.55;73.46;101010.94;4997866;28;20054;-88
2022/10/02 12:17:36;;;;;;;8.27;1.48;;;;;;;17.61;73.44;101020.28;5018132;28;20046;-87
2022/10/02 12:29:39;;;;;;;9.50;1.95;;;;;;;17.26;76.87;101007.44;5010593;28;20057;-87
2022/10/02 12:32:25;;;;;;;8.88;1.55;;;;;;;17.28;77.45;101074.34;5004065;28;20050;-86
2022/10/02 12:35:22;;;;;;;5.95;1.30;;;;;;;17.47;78.98;101071.44;4991388;28;20534;-87
2022/10/02 12:38:15;;;;;;;6.50;1.65;;;;;;;17.57;77.32;101016.16;5020588;28;20112;-88
2022/10/02 12:41:23;;;;;;;6.53;1.42;;;;;;;17.91;78.39;101083.75;5002355;28;20053;-93
2022/10/02 12:44:46;;;;;;;7.32;1.63;;;;;;;17.79;78.59;101087.13;5020552;28;20446;-94
2022/10/02 12:47:59;;;;;;;7.93;1.33;;;;;;;17.76;80.85;101052.91;5012071;28;20060;-91
2022/10/02 12:51:00;;;;;;;7.68;1.35;;;;;;;17.86;77.25;101088.50;5017441;28;20057;-92